Time,TemperatureF,DewpointF,PressureIn,WindDirection,WindDirectionDegrees,WindSpeedMPH,WindSpeedGustMPH,Humidity,HourlyPrecipIn,Conditions,Clouds,dailyrainin,SoftwareType,DateUTC
2013-03-10 00:02:00,5.6,0.0,29.92,NW,318,1.0,-999.0,79,-99.99,,,0.02,weatherlink.com 1.10,2013-03-10 07:02:00,
2013-03-10 00:17:00,6.7,2.0,29.93,NW,325,1.0,-999.0,79,-99.99,,,0.02,weatherlink.com 1.10,2013-03-10 07:17:00,
2013-03-10 00:32:00,7.7,2.0,29.94,NW,313,1.0,-999.0,77,-99.99,,,0.02,weatherlink.com 1.10,2013-03-10 07:32:00,
2013-03-10 00:47:00,7.9,2.0,29.95,NNW,339,3.0,-999.0,76,-99.99,,,0.02,weatherlink.com 1.10,2013-03-10 07:47:00,
2013-03-10 01:02:00,7.8,1.0,29.94,NNW,329,12.0,-999.0,75,-99.99,,,0.00,weatherlink.com 1.10,2013-03-10 08:02:00,
2013-03-10 01:17:00,7.8,1.0,29.95,WNW,302,12.0,-999.0,74,-99.99,,,0.00,weatherlink.com 1.10,2013-03-10 08:17:00,
2013-03-10 01:32:00,7.6,1.0,29.95,NW,312,3.0,-999.0,74,-99.99,,,0.00,weatherlink.com 1.10,2013-03-10 08:32:00,
2013-03-10 01:47:00,7.5,1.0,29.96,NNW,328,5.0,-999.0,74,-99.99,,,0.00,weatherlink.com 1.10,2013-03-10 08:47:00,
2013-03-10 03:02:00,7.1,0.0,29.96,NW,309,7.0,-999.0,74,-99.99,,,0.00,weatherlink.com 1.10,2013-03-10 09:02:00,
2013-03-10 03:17:00,7.2,0.0,29.96,NW,321,5.0,-999.0,73,-99.99,,,0.00,weatherlink.com 1.10,2013-03-10 09:17:00,
2013-03-10 03:32:00,7.0,0.0,29.97,NNW,329,7.0,-999.0,72,-99.99,,,0.00,weatherlink.com 1.10,2013-03-10 09:32:00,
2013-03-10 03:47:00,7.1,-1.0,29.97,WNW,295,12.0,-999.0,71,-99.99,,,0.00,weatherlink.com 1.10,2013-03-10 09:47:00,
2013-03-10 04:02:00,7.0,-1.0,29.98,WNW,284,0.0,-999.0,70,-99.99,,,0.00,weatherlink.com 1.10,2013-03-10 10:02:00,
2013-03-10 04:17:00,6.9,-1.0,29.98,NNW,327,14.0,-999.0,70,-99.99,,,0.00,weatherlink.com 1.10,2013-03-10 10:17:00,
2013-03-10 04:32:00,7.0,-1.0,29.99,NNW,343,2.0,-999.0,69,-99.99,,,0.00,weatherlink.com 1.10,2013-03-10 10:32:00,
2013-03-10 04:47:00,6.5,-2.0,30.00,NNW,336,3.0,-999.0,69,-99.99,,,0.00,weatherlink.com 1.10,2013-03-10 10:47:00,
2013-03-10 05:02:00,6.6,-2.0,30.02,NW,323,1.0,-999.0,69,-99.99,,,0.00,weatherlink.com 1.10,2013-03-10 11:02:00,
2013-03-10 05:17:00,6.7,-2.0,30.02,WNW,298,13.0,-999.0,68,-99.99,,,0.00,weatherlink.com 1.10,2013-03-10 11:17:00,
2013-03-10 05:32:00,6.5,-2.0,30.02,NW,304,3.0,-999.0,68,-99.99,,,0.00,weatherlink.com 1.10,2013-03-10 11:32:00,
2013-03-10 05:47:00,6.5,-2.0,30.03,North,11,3.0,-999.0,69,-99.99,,,0.00,weatherlink.com 1.10,2013-03-10 11:47:00,
2013-03-10 06:02:00,6.3,-2.0,30.03,WNW,288,0.0,-999.0,69,-99.99,,,0.00,weatherlink.com 1.10,2013-03-10 12:02:00,
2013-03-10 06:17:00,5.8,-2.0,30.04,SE,124,0.0,-999.0,69,-99.99,,,0.00,weatherlink.com 1.10,2013-03-10 12:17:00,
2013-03-10 06:32:00,5.0,-3.0,30.05,SE,126,0.0,-999.0,71,-99.99,,,0.00,weatherlink.com 1.10,2013-03-10 12:32:00,
2013-03-10 06:47:00,4.3,-3.0,30.05,ESE,123,0.0,-999.0,72,-99.99,,,0.00,weatherlink.com 1.10,2013-03-10 12:47:00,
2013-03-10 07:02:00,4.3,-3.0,30.04,East,82,1.0,-999.0,73,-99.99,,,0.00,weatherlink.com 1.10,2013-03-10 13:02:00,
2013-03-10 07:17:00,4.4,-3.0,30.05,WNW,286,1.0,-999.0,73,-99.99,,,0.00,weatherlink.com 1.10,2013-03-10 13:17:00,
2013-03-10 07:32:00,4.7,-2.0,30.06,North,355,3.0,-999.0,74,-99.99,,,0.00,weatherlink.com 1.10,2013-03-10 13:32:00,
2013-03-10 07:47:00,5.4,-2.0,30.06,NNW,334,0.0,-999.0,73,-99.99,,,0.00,weatherlink.com 1.10,2013-03-10 13:47:00,
2013-03-10 08:02:00,8.0,0.0,30.07,NNE,31,4.0,-999.0,70,-99.99,,,0.00,weatherlink.com 1.10,2013-03-10 14:02:00,
2013-03-10 08:17:00,9.8,1.0,30.09,NNW,346,3.0,-999.0,68,-99.99,,,0.00,weatherlink.com 1.10,2013-03-10 14:17:00,
2013-03-10 08:32:00,11.5,2.0,30.09,NNW,345,1.0,-999.0,65,-99.99,,,0.00,weatherlink.com 1.10,2013-03-10 14:32:00,
2013-03-10 08:47:00,12.7,2.0,30.09,NW,321,7.0,-999.0,63,-99.99,,,0.00,weatherlink.com 1.10,2013-03-10 14:47:00,
2013-03-10 09:02:00,14.0,3.0,30.10,NNW,336,9.0,-999.0,62,-99.99,,,0.00,weatherlink.com 1.10,2013-03-10 15:02:00,
2013-03-10 09:16:00,15.2,4.0,30.11,North,9,1.0,-999.0,61,-99.99,,,0.00,weatherlink.com 1.10,2013-03-10 15:16:00,
2013-03-10 09:31:00,16.6,5.0,30.12,North,355,0.0,-999.0,60,-99.99,,,0.00,weatherlink.com 1.10,2013-03-10 15:31:00,
2013-03-10 09:46:00,17.5,5.0,30.13,North,9,5.0,-999.0,59,-99.99,,,0.00,weatherlink.com 1.10,2013-03-10 15:46:00,
2013-03-10 10:02:00,18.5,7.0,30.13,NNE,30,3.0,-999.0,60,-99.99,,,0.00,weatherlink.com 1.10,2013-03-10 16:02:00,
2013-03-10 10:16:00,19.6,7.0,30.15,NE,42,7.0,-999.0,58,-99.99,,,0.00,weatherlink.com 1.10,2013-03-10 16:16:00,
2013-03-10 10:31:00,19.7,7.0,30.15,NE,46,0.0,-999.0,58,-99.99,,,0.00,weatherlink.com 1.10,2013-03-10 16:31:00,
2013-03-10 10:46:00,21.0,8.0,30.16,NW,323,3.0,-999.0,57,-99.99,,,0.01,weatherlink.com 1.10,2013-03-10 16:46:00,
2013-03-10 11:01:00,21.6,10.0,30.16,NE,40,0.0,-999.0,60,-99.99,,,0.02,weatherlink.com 1.10,2013-03-10 17:01:00,
2013-03-10 11:16:00,22.7,9.0,30.16,ENE,63,0.0,-999.0,55,-99.99,,,0.03,weatherlink.com 1.10,2013-03-10 17:16:00,
2013-03-10 11:31:00,23.2,9.0,30.16,ENE,61,0.0,-999.0,55,-99.99,,,0.04,weatherlink.com 1.10,2013-03-10 17:31:00,
2013-03-10 11:46:00,23.5,9.0,30.16,ENE,75,0.0,-999.0,54,-99.99,,,0.05,weatherlink.com 1.10,2013-03-10 17:46:00,
2013-03-10 12:01:00,24.5,9.0,30.16,NE,35,9.0,-999.0,52,-99.99,,,0.06,weatherlink.com 1.10,2013-03-10 18:01:00,
2013-03-10 12:16:00,26.1,11.0,30.16,North,360,5.0,-999.0,52,-99.99,,,0.07,weatherlink.com 1.10,2013-03-10 18:16:00,
2013-03-10 12:31:00,28.3,10.0,30.15,WSW,239,4.0,-999.0,46,-99.99,,,0.08,weatherlink.com 1.10,2013-03-10 18:31:00,
2013-03-10 12:46:00,28.5,10.0,30.14,ENE,66,4.0,-999.0,47,-99.99,,,0.08,weatherlink.com 1.10,2013-03-10 18:46:00,
2013-03-10 13:01:00,26.4,10.0,30.14,ENE,65,7.0,-999.0,51,-99.99,,,0.10,weatherlink.com 1.10,2013-03-10 19:01:00,
2013-03-10 13:16:00,27.6,11.0,30.14,ENE,76,0.0,-999.0,50,-99.99,,,0.10,weatherlink.com 1.10,2013-03-10 19:16:00,
2013-03-10 13:31:00,28.3,10.0,30.14,NNE,28,0.0,-999.0,47,-99.99,,,0.11,weatherlink.com 1.10,2013-03-10 19:31:00,
2013-03-10 13:46:00,28.1,10.0,30.15,NNE,28,2.0,-999.0,47,-99.99,,,0.11,weatherlink.com 1.10,2013-03-10 19:46:00,
2013-03-10 14:16:00,28.6,10.0,30.16,NW,313,2.0,-999.0,45,-99.99,,,0.13,weatherlink.com 1.10,2013-03-10 20:16:00,
2013-03-10 14:31:00,30.0,10.0,30.16,WNW,300,2.0,-999.0,44,-99.99,,,0.13,weatherlink.com 1.10,2013-03-10 20:31:00,
2013-03-10 14:46:00,30.1,11.0,30.16,WNW,290,9.0,-999.0,46,-99.99,,,0.14,weatherlink.com 1.10,2013-03-10 20:46:00,
2013-03-10 15:01:00,28.4,10.0,30.18,WNW,297,11.0,-999.0,47,-99.99,,,0.14,weatherlink.com 1.10,2013-03-10 21:01:00,
2013-03-10 15:16:00,26.8,10.0,30.18,WSW,245,9.0,-999.0,50,-99.99,,,0.14,weatherlink.com 1.10,2013-03-10 21:16:00,
2013-03-10 15:31:00,27.6,11.0,30.19,West,267,2.0,-999.0,49,-99.99,,,0.14,weatherlink.com 1.10,2013-03-10 21:31:00,
2013-03-10 15:46:00,26.0,10.0,30.19,NW,304,15.0,-999.0,50,-99.99,,,0.14,weatherlink.com 1.10,2013-03-10 21:46:00,
2013-03-10 16:01:00,24.5,9.0,30.19,WNW,296,7.0,-999.0,53,-99.99,,,0.14,weatherlink.com 1.10,2013-03-10 22:01:00,
2013-03-10 16:16:00,23.9,9.0,30.19,WNW,283,14.0,-999.0,54,-99.99,,,0.14,weatherlink.com 1.10,2013-03-10 22:16:00,
2013-03-10 16:31:00,23.6,10.0,30.20,West,278,5.0,-999.0,56,-99.99,,,0.14,weatherlink.com 1.10,2013-03-10 22:31:00,
2013-03-10 16:46:00,23.6,9.0,30.21,WNW,282,8.0,-999.0,55,-99.99,,,0.14,weatherlink.com 1.10,2013-03-10 22:46:00,
2013-03-10 17:02:00,23.4,9.0,30.19,West,263,7.0,-999.0,55,-99.99,,,0.14,weatherlink.com 1.10,2013-03-10 23:02:00,
2013-03-10 17:16:00,23.8,10.0,30.19,NW,309,4.0,-999.0,55,-99.99,,,0.14,weatherlink.com 1.10,2013-03-10 23:16:00,
2013-03-10 17:31:00,23.7,9.0,30.20,NW,306,11.0,-999.0,54,-99.99,,,0.14,weatherlink.com 1.10,2013-03-10 23:31:00,
2013-03-10 18:01:00,20.7,8.0,30.20,WNW,301,10.0,-999.0,59,-99.99,,,0.14,weatherlink.com 1.10,2013-03-11 00:01:00,
2013-03-10 18:32:00,19.4,7.0,30.22,NW,325,5.0,-999.0,59,-99.99,,,0.14,weatherlink.com 1.10,2013-03-11 00:32:00,
2013-03-10 18:46:00,17.8,8.0,30.23,WSW,257,1.0,-999.0,66,-99.99,,,0.14,weatherlink.com 1.10,2013-03-11 00:46:00,
2013-03-10 19:17:00,17.2,7.0,30.22,NNW,336,11.0,-999.0,64,-99.99,,,0.14,weatherlink.com 1.10,2013-03-11 01:17:00,
2013-03-10 19:46:00,18.0,6.0,30.23,WNW,298,2.0,-999.0,59,-99.99,,,0.14,weatherlink.com 1.10,2013-03-11 01:46:00,
2013-03-10 20:01:00,18.3,6.0,30.23,West,277,4.0,-999.0,58,-99.99,,,0.14,weatherlink.com 1.10,2013-03-11 02:01:00,
2013-03-10 20:16:00,18.2,7.0,30.25,NW,320,6.0,-999.0,61,-99.99,,,0.14,weatherlink.com 1.10,2013-03-11 02:16:00,
2013-03-10 20:32:00,17.2,7.0,30.25,West,278,4.0,-999.0,64,-99.99,,,0.14,weatherlink.com 1.10,2013-03-11 02:32:00,
2013-03-10 20:46:00,16.9,6.0,30.24,WNW,290,1.0,-999.0,63,-99.99,,,0.14,weatherlink.com 1.10,2013-03-11 02:46:00,
2013-03-10 21:01:00,17.2,7.0,30.24,NW,318,6.0,-999.0,63,-99.99,,,0.14,weatherlink.com 1.10,2013-03-11 03:01:00,
2013-03-10 21:16:00,17.8,6.0,30.23,NNW,338,1.0,-999.0,60,-99.99,,,0.14,weatherlink.com 1.10,2013-03-11 03:16:00,
2013-03-10 21:47:00,19.2,7.0,30.23,NNE,24,4.0,-999.0,59,-99.99,,,0.14,weatherlink.com 1.10,2013-03-11 03:47:00,
2013-03-10 22:02:00,19.1,7.0,30.24,NW,322,4.0,-999.0,60,-99.99,,,0.14,weatherlink.com 1.10,2013-03-11 04:02:00,
2013-03-10 22:17:00,18.8,8.0,30.24,NNW,327,1.0,-999.0,63,-99.99,,,0.14,weatherlink.com 1.10,2013-03-11 04:17:00,
2013-03-10 22:47:00,18.6,8.0,30.20,NW,321,10.0,-999.0,64,-99.99,,,0.14,weatherlink.com 1.10,2013-03-11 04:47:00,
2013-03-10 23:02:00,18.7,8.0,30.19,WNW,284,13.0,-999.0,63,-99.99,,,0.14,weatherlink.com 1.10,2013-03-11 05:02:00,
2013-03-10 23:17:00,18.8,8.0,30.18,NW,321,10.0,-999.0,63,-99.99,,,0.14,weatherlink.com 1.10,2013-03-11 05:17:00,
2013-03-10 23:32:00,18.9,8.0,30.18,North,355,9.0,-999.0,63,-99.99,,,0.14,weatherlink.com 1.10,2013-03-11 05:32:00,
2013-03-10 23:47:00,18.9,8.0,30.17,West,277,2.0,-999.0,62,-99.99,,,0.14,weatherlink.com 1.10,2013-03-11 05:47:00,